sensor_id;sensor_type;location;lat;lon;timestamp;P1;durP1;ratioP1;P2;durP2;ratioP2
33862;SDS011;20158;51.436;-2.742;2023-03-25T00:01:03;11.55;;;3.03;;
33862;SDS011;20158;51.436;-2.742;2023-03-25T00:03:33;10.57;;;3.30;;
33862;SDS011;20158;51.436;-2.742;2023-03-25T00:06:08;14.15;;;3.83;;
33862;SDS011;20158;51.436;-2.742;2023-03-25T00:08:35;12.60;;;2.97;;
33862;SDS011;20158;51.436;-2.742;2023-03-25T00:11:01;11.90;;;2.65;;
33862;SDS011;20158;51.436;-2.742;2023-03-25T00:13:33;12.35;;;3.55;;
33862;SDS011;20158;51.436;-2.742;2023-03-25T00:16:00;9.98;;;2.65;;
33862;SDS011;20158;51.436;-2.742;2023-03-25T00:18:31;11.20;;;2.53;;
33862;SDS011;20158;51.436;-2.742;2023-03-25T00:20:58;13.10;;;4.07;;
33862;SDS011;20158;51.436;-2.742;2023-03-25T00:23:26;11.05;;;2.88;;
33862;SDS011;20158;51.436;-2.742;2023-03-25T00:25:53;10.10;;;2.17;;
33862;SDS011;20158;51.436;-2.742;2023-03-25T00:28:26;10.45;;;2.47;;
33862;SDS011;20158;51.436;-2.742;2023-03-25T00:30:57;7.55;;;2.45;;
33862;SDS011;20158;51.436;-2.742;2023-03-25T00:33:24;11.48;;;4.18;;
33862;SDS011;20158;51.436;-2.742;2023-03-25T00:35:51;10.15;;;3.38;;
33862;SDS011;20158;51.436;-2.742;2023-03-25T00:38:27;10.23;;;2.72;;
33862;SDS011;20158;51.436;-2.742;2023-03-25T00:43:34;14.27;;;3.58;;
33862;SDS011;20158;51.436;-2.742;2023-03-25T00:46:00;11.93;;;3.35;;
33862;SDS011;20158;51.436;-2.742;2023-03-25T00:48:26;15.20;;;3.13;;
33862;SDS011;20158;51.436;-2.742;2023-03-25T00:50:52;13.10;;;2.78;;
33862;SDS011;20158;51.436;-2.742;2023-03-25T00:53:18;7.30;;;2.55;;
33862;SDS011;20158;51.436;-2.742;2023-03-25T00:55:44;12.05;;;3.10;;
33862;SDS011;20158;51.436;-2.742;2023-03-25T00:58:10;19.25;;;3.45;;
33862;SDS011;20158;51.436;-2.742;2023-03-25T01:00:36;11.68;;;3.97;;
33862;SDS011;20158;51.436;-2.742;2023-03-25T01:03:02;14.00;;;2.80;;
33862;SDS011;20158;51.436;-2.742;2023-03-25T01:05:29;11.57;;;2.65;;
33862;SDS011;20158;51.436;-2.742;2023-03-25T01:07:55;11.05;;;2.67;;
33862;SDS011;20158;51.436;-2.742;2023-03-25T01:10:21;14.50;;;3.33;;
33862;SDS011;20158;51.436;-2.742;2023-03-25T01:12:47;16.00;;;3.55;;
33862;SDS011;20158;51.436;-2.742;2023-03-25T01:15:13;16.15;;;3.75;;
33862;SDS011;20158;51.436;-2.742;2023-03-25T01:17:39;18.13;;;3.80;;
33862;SDS011;20158;51.436;-2.742;2023-03-25T01:20:06;15.15;;;3.42;;
33862;SDS011;20158;51.436;-2.742;2023-03-25T01:22:35;12.85;;;3.72;;
33862;SDS011;20158;51.436;-2.742;2023-03-25T01:25:02;9.63;;;4.07;;
33862;SDS011;20158;51.436;-2.742;2023-03-25T01:27:29;12.60;;;3.17;;
33862;SDS011;20158;51.436;-2.742;2023-03-25T01:29:55;19.33;;;2.97;;
33862;SDS011;20158;51.436;-2.742;2023-03-25T01:32:22;16.33;;;3.53;;
33862;SDS011;20158;51.436;-2.742;2023-03-25T01:34:48;19.83;;;4.90;;
33862;SDS011;20158;51.436;-2.742;2023-03-25T01:37:14;17.75;;;3.40;;
33862;SDS011;20158;51.436;-2.742;2023-03-25T01:39:40;18.25;;;3.70;;
33862;SDS011;20158;51.436;-2.742;2023-03-25T01:42:06;16.65;;;3.88;;
33862;SDS011;20158;51.436;-2.742;2023-03-25T01:46:59;13.65;;;3.15;;
33862;SDS011;20158;51.436;-2.742;2023-03-25T01:49:32;15.80;;;5.00;;
33862;SDS011;20158;51.436;-2.742;2023-03-25T01:52:08;17.73;;;4.25;;
33862;SDS011;20158;51.436;-2.742;2023-03-25T01:54:37;15.93;;;3.78;;
33862;SDS011;20158;51.436;-2.742;2023-03-25T01:57:05;12.95;;;3.22;;
33862;SDS011;20158;51.436;-2.742;2023-03-25T01:59:32;11.77;;;3.38;;
33862;SDS011;20158;51.436;-2.742;2023-03-25T02:02:00;15.25;;;5.18;;
33862;SDS011;20158;51.436;-2.742;2023-03-25T02:04:32;15.95;;;4.13;;
33862;SDS011;20158;51.436;-2.742;2023-03-25T02:07:14;12.05;;;3.55;;
33862;SDS011;20158;51.436;-2.742;2023-03-25T02:09:43;16.13;;;4.85;;
33862;SDS011;20158;51.436;-2.742;2023-03-25T02:12:08;17.65;;;3.95;;
33862;SDS011;20158;51.436;-2.742;2023-03-25T02:14:35;25.85;;;4.45;;
33862;SDS011;20158;51.436;-2.742;2023-03-25T02:17:15;14.80;;;4.82;;
33862;SDS011;20158;51.436;-2.742;2023-03-25T02:28:08;18.08;;;4.70;;
33862;SDS011;20158;51.436;-2.742;2023-03-25T02:38:58;19.67;;;4.32;;
33862;SDS011;20158;51.436;-2.742;2023-03-25T02:44:13;13.95;;;3.63;;
33862;SDS011;20158;51.436;-2.742;2023-03-25T02:46:47;18.38;;;5.53;;
33862;SDS011;20158;51.436;-2.742;2023-03-25T02:49:20;15.45;;;4.45;;
33862;SDS011;20158;51.436;-2.742;2023-03-25T02:52:00;21.38;;;4.35;;
33862;SDS011;20158;51.436;-2.742;2023-03-25T02:54:32;17.08;;;4.78;;
33862;SDS011;20158;51.436;-2.742;2023-03-25T02:57:02;16.40;;;4.15;;
33862;SDS011;20158;51.436;-2.742;2023-03-25T02:59:29;15.20;;;3.85;;
33862;SDS011;20158;51.436;-2.742;2023-03-25T03:01:59;15.38;;;3.75;;
33862;SDS011;20158;51.436;-2.742;2023-03-25T03:04:29;18.25;;;4.38;;
33862;SDS011;20158;51.436;-2.742;2023-03-25T03:06:55;18.80;;;4.63;;
33862;SDS011;20158;51.436;-2.742;2023-03-25T03:11:57;19.27;;;4.72;;
33862;SDS011;20158;51.436;-2.742;2023-03-25T03:14:57;20.88;;;5.15;;
33862;SDS011;20158;51.436;-2.742;2023-03-25T03:23:00;21.73;;;4.72;;
33862;SDS011;20158;51.436;-2.742;2023-03-25T03:28:16;19.42;;;5.32;;
33862;SDS011;20158;51.436;-2.742;2023-03-25T03:31:06;16.80;;;4.95;;
33862;SDS011;20158;51.436;-2.742;2023-03-25T03:36:25;20.15;;;5.65;;
33862;SDS011;20158;51.436;-2.742;2023-03-25T03:39:00;21.25;;;4.22;;
33862;SDS011;20158;51.436;-2.742;2023-03-25T03:41:32;16.17;;;5.50;;
33862;SDS011;20158;51.436;-2.742;2023-03-25T03:44:01;22.92;;;5.68;;
33862;SDS011;20158;51.436;-2.742;2023-03-25T03:49:13;20.98;;;4.47;;
33862;SDS011;20158;51.436;-2.742;2023-03-25T03:51:54;15.63;;;3.97;;
33862;SDS011;20158;51.436;-2.742;2023-03-25T03:54:35;18.75;;;4.22;;
33862;SDS011;20158;51.436;-2.742;2023-03-25T03:57:28;18.63;;;5.28;;
33862;SDS011;20158;51.436;-2.742;2023-03-25T04:05:07;16.52;;;4.72;;
33862;SDS011;20158;51.436;-2.742;2023-03-25T04:10:11;21.50;;;5.43;;
33862;SDS011;20158;51.436;-2.742;2023-03-25T04:12:43;23.05;;;6.45;;
33862;SDS011;20158;51.436;-2.742;2023-03-25T04:15:16;19.52;;;4.00;;
33862;SDS011;20158;51.436;-2.742;2023-03-25T04:17:43;20.40;;;4.72;;
33862;SDS011;20158;51.436;-2.742;2023-03-25T04:20:12;17.02;;;4.38;;
33862;SDS011;20158;51.436;-2.742;2023-03-25T04:22:40;20.13;;;5.25;;
33862;SDS011;20158;51.436;-2.742;2023-03-25T04:25:10;17.15;;;4.15;;
33862;SDS011;20158;51.436;-2.742;2023-03-25T04:27:38;22.05;;;4.82;;
33862;SDS011;20158;51.436;-2.742;2023-03-25T04:30:06;18.67;;;6.88;;
33862;SDS011;20158;51.436;-2.742;2023-03-25T04:32:32;15.93;;;3.83;;
33862;SDS011;20158;51.436;-2.742;2023-03-25T04:34:59;16.95;;;3.83;;
33862;SDS011;20158;51.436;-2.742;2023-03-25T04:37:26;16.58;;;4.22;;
33862;SDS011;20158;51.436;-2.742;2023-03-25T04:39:52;13.32;;;4.03;;
33862;SDS011;20158;51.436;-2.742;2023-03-25T04:42:20;14.00;;;4.43;;
33862;SDS011;20158;51.436;-2.742;2023-03-25T04:45:00;16.10;;;3.45;;
33862;SDS011;20158;51.436;-2.742;2023-03-25T04:47:28;17.38;;;4.63;;
33862;SDS011;20158;51.436;-2.742;2023-03-25T04:49:54;18.70;;;5.43;;
33862;SDS011;20158;51.436;-2.742;2023-03-25T04:52:21;15.77;;;4.05;;
33862;SDS011;20158;51.436;-2.742;2023-03-25T04:54:47;20.38;;;4.75;;
33862;SDS011;20158;51.436;-2.742;2023-03-25T04:57:12;17.08;;;3.55;;
33862;SDS011;20158;51.436;-2.742;2023-03-25T04:59:39;16.58;;;3.72;;
33862;SDS011;20158;51.436;-2.742;2023-03-25T05:02:05;19.98;;;5.00;;
33862;SDS011;20158;51.436;-2.742;2023-03-25T05:04:40;13.43;;;3.70;;
33862;SDS011;20158;51.436;-2.742;2023-03-25T05:07:12;14.18;;;3.63;;
33862;SDS011;20158;51.436;-2.742;2023-03-25T05:09:40;14.05;;;3.95;;
33862;SDS011;20158;51.436;-2.742;2023-03-25T05:12:07;17.65;;;3.70;;
33862;SDS011;20158;51.436;-2.742;2023-03-25T05:14:36;14.93;;;3.67;;
33862;SDS011;20158;51.436;-2.742;2023-03-25T05:17:01;15.02;;;3.45;;
33862;SDS011;20158;51.436;-2.742;2023-03-25T05:19:28;11.23;;;3.97;;
33862;SDS011;20158;51.436;-2.742;2023-03-25T05:21:54;15.20;;;3.58;;
33862;SDS011;20158;51.436;-2.742;2023-03-25T05:24:20;18.50;;;3.83;;
33862;SDS011;20158;51.436;-2.742;2023-03-25T05:26:46;15.75;;;3.08;;
33862;SDS011;20158;51.436;-2.742;2023-03-25T05:29:13;15.30;;;3.63;;
33862;SDS011;20158;51.436;-2.742;2023-03-25T05:31:40;16.85;;;4.35;;
33862;SDS011;20158;51.436;-2.742;2023-03-25T05:34:08;10.48;;;3.17;;
33862;SDS011;20158;51.436;-2.742;2023-03-25T05:36:34;17.02;;;4.43;;
33862;SDS011;20158;51.436;-2.742;2023-03-25T05:39:01;18.70;;;4.45;;
33862;SDS011;20158;51.436;-2.742;2023-03-25T05:41:28;16.73;;;5.68;;
33862;SDS011;20158;51.436;-2.742;2023-03-25T05:43:58;13.48;;;3.80;;
33862;SDS011;20158;51.436;-2.742;2023-03-25T05:46:25;15.65;;;4.15;;
33862;SDS011;20158;51.436;-2.742;2023-03-25T05:48:53;11.23;;;3.75;;
33862;SDS011;20158;51.436;-2.742;2023-03-25T05:51:22;16.50;;;4.18;;
33862;SDS011;20158;51.436;-2.742;2023-03-25T05:53:49;14.13;;;3.22;;
33862;SDS011;20158;51.436;-2.742;2023-03-25T05:56:19;13.00;;;3.53;;
33862;SDS011;20158;51.436;-2.742;2023-03-25T05:58:47;18.02;;;4.05;;
33862;SDS011;20158;51.436;-2.742;2023-03-25T06:01:16;15.98;;;4.75;;
33862;SDS011;20158;51.436;-2.742;2023-03-25T06:03:43;12.30;;;3.45;;
33862;SDS011;20158;51.436;-2.742;2023-03-25T06:06:10;16.58;;;3.35;;
33862;SDS011;20158;51.436;-2.742;2023-03-25T06:08:49;16.73;;;3.47;;
33862;SDS011;20158;51.436;-2.742;2023-03-25T06:11:16;17.17;;;4.55;;
33862;SDS011;20158;51.436;-2.742;2023-03-25T06:13:43;12.63;;;5.13;;
33862;SDS011;20158;51.436;-2.742;2023-03-25T06:16:17;17.27;;;4.93;;
33862;SDS011;20158;51.436;-2.742;2023-03-25T06:18:46;13.25;;;3.45;;
33862;SDS011;20158;51.436;-2.742;2023-03-25T06:21:17;18.02;;;4.57;;
33862;SDS011;20158;51.436;-2.742;2023-03-25T06:23:45;19.05;;;5.50;;
33862;SDS011;20158;51.436;-2.742;2023-03-25T06:26:15;14.07;;;3.47;;
33862;SDS011;20158;51.436;-2.742;2023-03-25T06:28:42;13.95;;;4.65;;
33862;SDS011;20158;51.436;-2.742;2023-03-25T06:31:15;14.48;;;3.50;;
33862;SDS011;20158;51.436;-2.742;2023-03-25T06:33:43;18.15;;;4.75;;
33862;SDS011;20158;51.436;-2.742;2023-03-25T06:36:10;23.15;;;4.50;;
33862;SDS011;20158;51.436;-2.742;2023-03-25T06:38:38;22.75;;;5.88;;
33862;SDS011;20158;51.436;-2.742;2023-03-25T06:41:08;16.30;;;4.32;;
33862;SDS011;20158;51.436;-2.742;2023-03-25T06:43:36;13.80;;;3.75;;
33862;SDS011;20158;51.436;-2.742;2023-03-25T06:46:24;18.45;;;4.70;;
33862;SDS011;20158;51.436;-2.742;2023-03-25T06:49:14;18.42;;;4.20;;
33862;SDS011;20158;51.436;-2.742;2023-03-25T06:51:41;19.40;;;4.13;;
33862;SDS011;20158;51.436;-2.742;2023-03-25T06:54:07;24.00;;;6.10;;
33862;SDS011;20158;51.436;-2.742;2023-03-25T06:56:33;15.13;;;4.07;;
33862;SDS011;20158;51.436;-2.742;2023-03-25T06:58:59;20.20;;;4.13;;
33862;SDS011;20158;51.436;-2.742;2023-03-25T07:01:27;15.65;;;3.67;;
33862;SDS011;20158;51.436;-2.742;2023-03-25T07:03:53;16.17;;;4.97;;
33862;SDS011;20158;51.436;-2.742;2023-03-25T07:06:21;25.38;;;6.07;;
33862;SDS011;20158;51.436;-2.742;2023-03-25T07:11:22;14.80;;;4.80;;
33862;SDS011;20158;51.436;-2.742;2023-03-25T07:13:53;18.92;;;4.68;;
33862;SDS011;20158;51.436;-2.742;2023-03-25T07:16:20;15.15;;;3.47;;
33862;SDS011;20158;51.436;-2.742;2023-03-25T07:18:49;20.42;;;4.80;;
33862;SDS011;20158;51.436;-2.742;2023-03-25T07:21:16;18.33;;;4.40;;
33862;SDS011;20158;51.436;-2.742;2023-03-25T07:23:42;18.55;;;6.10;;
33862;SDS011;20158;51.436;-2.742;2023-03-25T07:26:08;14.73;;;3.70;;
33862;SDS011;20158;51.436;-2.742;2023-03-25T07:28:35;17.27;;;4.18;;
33862;SDS011;20158;51.436;-2.742;2023-03-25T07:31:06;21.40;;;4.30;;
33862;SDS011;20158;51.436;-2.742;2023-03-25T07:33:37;15.85;;;4.10;;
33862;SDS011;20158;51.436;-2.742;2023-03-25T07:36:04;21.48;;;3.72;;
33862;SDS011;20158;51.436;-2.742;2023-03-25T07:38:35;17.88;;;3.70;;
33862;SDS011;20158;51.436;-2.742;2023-03-25T07:41:08;23.65;;;4.47;;
33862;SDS011;20158;51.436;-2.742;2023-03-25T07:43:43;22.30;;;4.97;;
33862;SDS011;20158;51.436;-2.742;2023-03-25T07:46:39;15.60;;;3.58;;
33862;SDS011;20158;51.436;-2.742;2023-03-25T07:49:08;13.60;;;3.47;;
33862;SDS011;20158;51.436;-2.742;2023-03-25T07:51:34;16.77;;;4.00;;
33862;SDS011;20158;51.436;-2.742;2023-03-25T07:54:00;24.73;;;4.70;;
33862;SDS011;20158;51.436;-2.742;2023-03-25T07:56:26;19.95;;;4.15;;
33862;SDS011;20158;51.436;-2.742;2023-03-25T07:58:52;19.38;;;4.57;;
33862;SDS011;20158;51.436;-2.742;2023-03-25T08:01:18;18.63;;;4.55;;
33862;SDS011;20158;51.436;-2.742;2023-03-25T08:03:44;55.08;;;5.95;;
33862;SDS011;20158;51.436;-2.742;2023-03-25T08:06:10;19.25;;;4.70;;
33862;SDS011;20158;51.436;-2.742;2023-03-25T08:08:36;15.80;;;3.67;;
33862;SDS011;20158;51.436;-2.742;2023-03-25T08:11:03;17.50;;;4.45;;
33862;SDS011;20158;51.436;-2.742;2023-03-25T08:13:29;14.57;;;3.58;;
33862;SDS011;20158;51.436;-2.742;2023-03-25T08:15:55;12.23;;;3.65;;
33862;SDS011;20158;51.436;-2.742;2023-03-25T08:18:22;18.90;;;3.25;;
33862;SDS011;20158;51.436;-2.742;2023-03-25T08:20:49;16.45;;;3.67;;
33862;SDS011;20158;51.436;-2.742;2023-03-25T08:23:16;15.63;;;4.20;;
33862;SDS011;20158;51.436;-2.742;2023-03-25T08:25:42;14.10;;;4.53;;
33862;SDS011;20158;51.436;-2.742;2023-03-25T08:28:09;16.42;;;5.55;;
33862;SDS011;20158;51.436;-2.742;2023-03-25T08:30:35;11.02;;;3.05;;
33862;SDS011;20158;51.436;-2.742;2023-03-25T08:33:05;11.65;;;2.70;;
33862;SDS011;20158;51.436;-2.742;2023-03-25T08:35:32;13.57;;;3.40;;
33862;SDS011;20158;51.436;-2.742;2023-03-25T08:37:59;15.65;;;5.10;;
33862;SDS011;20158;51.436;-2.742;2023-03-25T08:40:26;16.83;;;4.80;;
33862;SDS011;20158;51.436;-2.742;2023-03-25T08:42:52;16.02;;;3.47;;
33862;SDS011;20158;51.436;-2.742;2023-03-25T08:45:19;9.55;;;2.72;;
33862;SDS011;20158;51.436;-2.742;2023-03-25T08:47:45;15.20;;;3.58;;
33862;SDS011;20158;51.436;-2.742;2023-03-25T08:50:12;17.05;;;3.67;;
33862;SDS011;20158;51.436;-2.742;2023-03-25T08:52:41;16.95;;;3.42;;
33862;SDS011;20158;51.436;-2.742;2023-03-25T08:55:07;10.35;;;2.78;;
33862;SDS011;20158;51.436;-2.742;2023-03-25T08:57:34;15.50;;;3.97;;
33862;SDS011;20158;51.436;-2.742;2023-03-25T09:00:03;13.30;;;3.50;;
33862;SDS011;20158;51.436;-2.742;2023-03-25T09:02:39;12.15;;;3.97;;
33862;SDS011;20158;51.436;-2.742;2023-03-25T09:05:07;14.15;;;3.85;;
33862;SDS011;20158;51.436;-2.742;2023-03-25T09:07:35;12.98;;;3.35;;
33862;SDS011;20158;51.436;-2.742;2023-03-25T09:10:02;11.52;;;3.55;;
33862;SDS011;20158;51.436;-2.742;2023-03-25T09:12:29;10.23;;;2.88;;
33862;SDS011;20158;51.436;-2.742;2023-03-25T09:14:55;11.05;;;3.03;;
33862;SDS011;20158;51.436;-2.742;2023-03-25T09:17:21;12.48;;;3.13;;
33862;SDS011;20158;51.436;-2.742;2023-03-25T09:19:47;11.57;;;3.80;;
33862;SDS011;20158;51.436;-2.742;2023-03-25T09:22:13;14.85;;;3.78;;
33862;SDS011;20158;51.436;-2.742;2023-03-25T09:24:40;11.38;;;3.03;;
33862;SDS011;20158;51.436;-2.742;2023-03-25T09:27:06;13.93;;;3.60;;
33862;SDS011;20158;51.436;-2.742;2023-03-25T09:29:32;14.93;;;3.47;;
33862;SDS011;20158;51.436;-2.742;2023-03-25T09:31:58;17.75;;;4.45;;
33862;SDS011;20158;51.436;-2.742;2023-03-25T09:34:26;11.80;;;3.85;;
33862;SDS011;20158;51.436;-2.742;2023-03-25T09:36:53;15.13;;;3.80;;
33862;SDS011;20158;51.436;-2.742;2023-03-25T09:39:20;11.95;;;3.17;;
33862;SDS011;20158;51.436;-2.742;2023-03-25T09:47:25;14.43;;;4.07;;
33862;SDS011;20158;51.436;-2.742;2023-03-25T09:49:55;14.65;;;4.63;;
33862;SDS011;20158;51.436;-2.742;2023-03-25T09:55:27;10.82;;;3.38;;
33862;SDS011;20158;51.436;-2.742;2023-03-25T09:58:19;12.98;;;3.10;;
33862;SDS011;20158;51.436;-2.742;2023-03-25T10:06:15;13.48;;;3.60;;
33862;SDS011;20158;51.436;-2.742;2023-03-25T10:11:52;17.35;;;4.03;;
33862;SDS011;20158;51.436;-2.742;2023-03-25T10:15:13;11.98;;;3.08;;
33862;SDS011;20158;51.436;-2.742;2023-03-25T10:17:57;12.38;;;3.58;;
33862;SDS011;20158;51.436;-2.742;2023-03-25T10:23:15;15.88;;;4.35;;
33862;SDS011;20158;51.436;-2.742;2023-03-25T10:25:55;13.70;;;3.22;;
33862;SDS011;20158;51.436;-2.742;2023-03-25T10:28:34;12.52;;;4.05;;
33862;SDS011;20158;51.436;-2.742;2023-03-25T10:31:04;19.73;;;4.10;;
33862;SDS011;20158;51.436;-2.742;2023-03-25T10:33:36;14.88;;;4.20;;
33862;SDS011;20158;51.436;-2.742;2023-03-25T10:36:06;18.77;;;3.85;;
33862;SDS011;20158;51.436;-2.742;2023-03-25T10:38:42;17.88;;;4.90;;
33862;SDS011;20158;51.436;-2.742;2023-03-25T10:41:45;19.35;;;5.28;;
33862;SDS011;20158;51.436;-2.742;2023-03-25T10:44:08;16.92;;;5.13;;
33862;SDS011;20158;51.436;-2.742;2023-03-25T10:46:36;22.55;;;5.10;;
33862;SDS011;20158;51.436;-2.742;2023-03-25T10:49:19;18.90;;;5.22;;
33862;SDS011;20158;51.436;-2.742;2023-03-25T10:51:54;14.85;;;4.93;;
33862;SDS011;20158;51.436;-2.742;2023-03-25T10:54:26;16.90;;;3.50;;
33862;SDS011;20158;51.436;-2.742;2023-03-25T10:56:59;14.03;;;3.80;;
33862;SDS011;20158;51.436;-2.742;2023-03-25T11:02:02;14.07;;;4.47;;
33862;SDS011;20158;51.436;-2.742;2023-03-25T11:04:41;19.98;;;5.60;;
33862;SDS011;20158;51.436;-2.742;2023-03-25T11:07:19;11.00;;;3.83;;
33862;SDS011;20158;51.436;-2.742;2023-03-25T11:10:07;13.27;;;4.28;;
33862;SDS011;20158;51.436;-2.742;2023-03-25T11:12:47;9.25;;;3.55;;
33862;SDS011;20158;51.436;-2.742;2023-03-25T11:15:22;11.43;;;3.90;;
33862;SDS011;20158;51.436;-2.742;2023-03-25T11:17:58;10.00;;;3.60;;
33862;SDS011;20158;51.436;-2.742;2023-03-25T11:20:28;16.38;;;3.65;;
33862;SDS011;20158;51.436;-2.742;2023-03-25T11:23:07;13.85;;;4.40;;
33862;SDS011;20158;51.436;-2.742;2023-03-25T11:25:54;13.20;;;3.45;;
33862;SDS011;20158;51.436;-2.742;2023-03-25T11:33:36;8.88;;;2.90;;
33862;SDS011;20158;51.436;-2.742;2023-03-25T11:38:44;12.65;;;3.72;;
33862;SDS011;20158;51.436;-2.742;2023-03-25T11:41:12;13.52;;;4.07;;
33862;SDS011;20158;51.436;-2.742;2023-03-25T11:43:38;10.63;;;3.13;;
33862;SDS011;20158;51.436;-2.742;2023-03-25T11:46:12;10.77;;;2.75;;
33862;SDS011;20158;51.436;-2.742;2023-03-25T11:48:42;9.45;;;3.13;;
33862;SDS011;20158;51.436;-2.742;2023-03-25T11:51:15;9.52;;;3.10;;
33862;SDS011;20158;51.436;-2.742;2023-03-25T11:53:48;11.10;;;3.00;;
33862;SDS011;20158;51.436;-2.742;2023-03-25T11:56:23;11.30;;;3.40;;
33862;SDS011;20158;51.436;-2.742;2023-03-25T11:58:56;12.43;;;2.97;;
33862;SDS011;20158;51.436;-2.742;2023-03-25T12:01:28;10.70;;;4.00;;
33862;SDS011;20158;51.436;-2.742;2023-03-25T12:04:20;9.43;;;3.50;;
33862;SDS011;20158;51.436;-2.742;2023-03-25T12:09:27;12.45;;;3.97;;
33862;SDS011;20158;51.436;-2.742;2023-03-25T12:12:02;27.00;;;17.80;;
33862;SDS011;20158;51.436;-2.742;2023-03-25T12:17:31;37.78;;;28.08;;
33862;SDS011;20158;51.436;-2.742;2023-03-25T12:23:02;36.95;;;26.38;;
33862;SDS011;20158;51.436;-2.742;2023-03-25T12:41:55;18.42;;;11.85;;
33862;SDS011;20158;51.436;-2.742;2023-03-25T12:52:57;17.17;;;9.98;;
33862;SDS011;20158;51.436;-2.742;2023-03-25T13:06:41;15.60;;;7.18;;
33862;SDS011;20158;51.436;-2.742;2023-03-25T13:09:23;15.00;;;6.22;;
33862;SDS011;20158;51.436;-2.742;2023-03-25T13:11:53;15.02;;;6.50;;
33862;SDS011;20158;51.436;-2.742;2023-03-25T13:14:44;14.75;;;6.18;;
33862;SDS011;20158;51.436;-2.742;2023-03-25T13:17:40;15.05;;;5.72;;
33862;SDS011;20158;51.436;-2.742;2023-03-25T13:20:27;13.80;;;4.75;;
33862;SDS011;20158;51.436;-2.742;2023-03-25T13:23:03;14.00;;;5.05;;
33862;SDS011;20158;51.436;-2.742;2023-03-25T13:25:39;16.83;;;5.97;;
33862;SDS011;20158;51.436;-2.742;2023-03-25T13:28:14;14.57;;;5.05;;
33862;SDS011;20158;51.436;-2.742;2023-03-25T13:30:45;13.80;;;4.60;;
33862;SDS011;20158;51.436;-2.742;2023-03-25T13:33:18;15.10;;;4.72;;
33862;SDS011;20158;51.436;-2.742;2023-03-25T13:35:51;16.27;;;5.38;;
33862;SDS011;20158;51.436;-2.742;2023-03-25T13:38:45;12.77;;;3.85;;
33862;SDS011;20158;51.436;-2.742;2023-03-25T13:46:40;14.48;;;5.00;;
33862;SDS011;20158;51.436;-2.742;2023-03-25T13:51:48;12.10;;;4.03;;
33862;SDS011;20158;51.436;-2.742;2023-03-25T13:59:47;15.10;;;4.13;;
33862;SDS011;20158;51.436;-2.742;2023-03-25T14:08:26;10.38;;;4.00;;
33862;SDS011;20158;51.436;-2.742;2023-03-25T14:13:38;12.80;;;3.88;;
33862;SDS011;20158;51.436;-2.742;2023-03-25T14:16:16;11.05;;;3.65;;
33862;SDS011;20158;51.436;-2.742;2023-03-25T14:18:46;11.55;;;4.10;;
33862;SDS011;20158;51.436;-2.742;2023-03-25T14:21:27;11.10;;;4.10;;
33862;SDS011;20158;51.436;-2.742;2023-03-25T14:24:06;10.77;;;3.50;;
33862;SDS011;20158;51.436;-2.742;2023-03-25T14:27:01;9.77;;;3.97;;
33862;SDS011;20158;51.436;-2.742;2023-03-25T14:34:49;13.93;;;4.35;;
33862;SDS011;20158;51.436;-2.742;2023-03-25T14:37:25;9.90;;;3.63;;
33862;SDS011;20158;51.436;-2.742;2023-03-25T14:39:54;13.93;;;4.35;;
33862;SDS011;20158;51.436;-2.742;2023-03-25T14:48:17;10.02;;;3.25;;
33862;SDS011;20158;51.436;-2.742;2023-03-25T14:51:06;10.88;;;3.65;;
33862;SDS011;20158;51.436;-2.742;2023-03-25T14:53:55;13.45;;;4.15;;
33862;SDS011;20158;51.436;-2.742;2023-03-25T14:56:37;15.07;;;5.20;;
33862;SDS011;20158;51.436;-2.742;2023-03-25T14:59:17;11.77;;;3.33;;
33862;SDS011;20158;51.436;-2.742;2023-03-25T15:01:48;11.93;;;4.50;;
33862;SDS011;20158;51.436;-2.742;2023-03-25T15:04:21;15.30;;;3.92;;
33862;SDS011;20158;51.436;-2.742;2023-03-25T15:06:59;6.93;;;3.17;;
33862;SDS011;20158;51.436;-2.742;2023-03-25T15:09:26;11.73;;;4.30;;
33862;SDS011;20158;51.436;-2.742;2023-03-25T15:12:01;9.80;;;3.08;;
33862;SDS011;20158;51.436;-2.742;2023-03-25T15:14:32;5.72;;;2.80;;
33862;SDS011;20158;51.436;-2.742;2023-03-25T15:17:02;11.13;;;3.80;;
33862;SDS011;20158;51.436;-2.742;2023-03-25T15:25:55;9.18;;;3.08;;
33862;SDS011;20158;51.436;-2.742;2023-03-25T15:31:25;9.23;;;3.47;;
33862;SDS011;20158;51.436;-2.742;2023-03-25T15:34:08;10.80;;;3.83;;
33862;SDS011;20158;51.436;-2.742;2023-03-25T15:49:05;12.85;;;3.13;;
33862;SDS011;20158;51.436;-2.742;2023-03-25T15:52:06;7.38;;;2.25;;
33862;SDS011;20158;51.436;-2.742;2023-03-25T15:54:52;9.30;;;3.33;;
33862;SDS011;20158;51.436;-2.742;2023-03-25T15:57:34;11.77;;;3.42;;
33862;SDS011;20158;51.436;-2.742;2023-03-25T16:05:31;10.65;;;3.00;;
33862;SDS011;20158;51.436;-2.742;2023-03-25T16:08:07;8.57;;;3.22;;
33862;SDS011;20158;51.436;-2.742;2023-03-25T16:10:36;6.22;;;2.95;;
33862;SDS011;20158;51.436;-2.742;2023-03-25T16:13:05;8.63;;;2.67;;
33862;SDS011;20158;51.436;-2.742;2023-03-25T16:15:35;6.25;;;2.72;;
33862;SDS011;20158;51.436;-2.742;2023-03-25T16:18:03;8.57;;;3.30;;
33862;SDS011;20158;51.436;-2.742;2023-03-25T16:20:32;13.05;;;3.10;;
33862;SDS011;20158;51.436;-2.742;2023-03-25T16:22:59;10.32;;;3.53;;
33862;SDS011;20158;51.436;-2.742;2023-03-25T16:25:38;10.10;;;3.60;;
33862;SDS011;20158;51.436;-2.742;2023-03-25T16:28:06;10.23;;;3.30;;
33862;SDS011;20158;51.436;-2.742;2023-03-25T16:30:40;7.40;;;3.05;;
33862;SDS011;20158;51.436;-2.742;2023-03-25T16:35:42;8.02;;;2.50;;
33862;SDS011;20158;51.436;-2.742;2023-03-25T16:40:42;10.40;;;2.85;;
33862;SDS011;20158;51.436;-2.742;2023-03-25T16:45:40;9.88;;;2.83;;
33862;SDS011;20158;51.436;-2.742;2023-03-25T16:48:12;10.85;;;3.88;;
33862;SDS011;20158;51.436;-2.742;2023-03-25T16:50:41;8.55;;;3.22;;
33862;SDS011;20158;51.436;-2.742;2023-03-25T16:53:10;7.18;;;3.10;;
33862;SDS011;20158;51.436;-2.742;2023-03-25T16:55:45;7.10;;;2.78;;
33862;SDS011;20158;51.436;-2.742;2023-03-25T16:58:52;7.40;;;2.97;;
33862;SDS011;20158;51.436;-2.742;2023-03-25T17:01:40;8.30;;;3.20;;
33862;SDS011;20158;51.436;-2.742;2023-03-25T17:04:22;6.90;;;3.33;;
33862;SDS011;20158;51.436;-2.742;2023-03-25T17:07:07;5.50;;;3.15;;
33862;SDS011;20158;51.436;-2.742;2023-03-25T17:09:37;7.93;;;2.83;;
33862;SDS011;20158;51.436;-2.742;2023-03-25T17:12:08;7.60;;;2.35;;
33862;SDS011;20158;51.436;-2.742;2023-03-25T17:14:41;6.97;;;3.03;;
33862;SDS011;20158;51.436;-2.742;2023-03-25T17:17:12;6.93;;;3.03;;
33862;SDS011;20158;51.436;-2.742;2023-03-25T17:19:59;7.05;;;2.33;;
33862;SDS011;20158;51.436;-2.742;2023-03-25T17:22:34;7.43;;;2.30;;
33862;SDS011;20158;51.436;-2.742;2023-03-25T17:27:54;8.88;;;3.35;;
33862;SDS011;20158;51.436;-2.742;2023-03-25T17:32:53;5.85;;;2.72;;
33862;SDS011;20158;51.436;-2.742;2023-03-25T17:35:32;6.70;;;2.50;;
33862;SDS011;20158;51.436;-2.742;2023-03-25T17:37:58;6.70;;;3.25;;
33862;SDS011;20158;51.436;-2.742;2023-03-25T17:40:25;7.78;;;3.20;;
33862;SDS011;20158;51.436;-2.742;2023-03-25T17:42:53;6.78;;;2.78;;
33862;SDS011;20158;51.436;-2.742;2023-03-25T17:45:21;6.85;;;2.65;;
33862;SDS011;20158;51.436;-2.742;2023-03-25T17:47:50;9.52;;;2.83;;
33862;SDS011;20158;51.436;-2.742;2023-03-25T17:50:21;7.93;;;2.50;;
33862;SDS011;20158;51.436;-2.742;2023-03-25T17:52:49;6.25;;;2.38;;
33862;SDS011;20158;51.436;-2.742;2023-03-25T17:55:16;12.18;;;4.05;;
33862;SDS011;20158;51.436;-2.742;2023-03-25T17:57:42;7.38;;;2.70;;
33862;SDS011;20158;51.436;-2.742;2023-03-25T18:00:11;9.00;;;2.85;;
33862;SDS011;20158;51.436;-2.742;2023-03-25T18:02:43;8.13;;;3.40;;
33862;SDS011;20158;51.436;-2.742;2023-03-25T18:05:10;8.90;;;2.72;;
33862;SDS011;20158;51.436;-2.742;2023-03-25T18:07:36;12.13;;;3.20;;